Antoing, Belgium
Current Conditions -  °F | °C
As of 5:30 AM on Thursday 29 Jan 2015 (Local Time) from LFQQ Reporting Station
Broken Clouds Broken Clouds  
Wind Chill: 26°   Ceiling: 12000
Heat Index: 36°   Visibility: 6mi
Dew Point: 34°   Wind: 16mph
Humidity: 93%   Direction: 220°SW
Pressure: 29.41"   Gusts: NA
Location:  50.57°N, 3.45°E
Report Text: LFQQ 290430Z 22014KT 9999 SCT011 BKN120 02/01 Q0996 NOSIG
Loading
Personal Weather Stations






























Interactive Weather Map New forecast layout! Learn more

10-Day Weather Forecast

Advertisements
Track Severe Weather on mobile